Canton, Connecticut
Current Conditions -  °F | °C
As of 12:51 PM on Saturday 20 Dec 2014 (Local Time) from KBDL Reporting Station
Overcast Overcast  
Wind Chill: 23°   Ceiling: 2800
Heat Index: 30°   Visibility: 10mi
Dew Point: 18°   Wind: 7mph
Humidity: 61%   Direction: 360°N
Pressure: 30.26"   Gusts: NA
Location:  41.82°N, 72.89°W
Report Text: KBDL 201751Z 36006KT 10SM OVC028 M01/M08 A3026 RMK AO2 SLP248 T10111078 11011 21033 58009 $
Loading
Personal Weather Stations






























Interactive Weather Map New forecast layout! Learn more

10-Day Weather Forecast

Advertisements
Track Severe Weather on mobile